Terminal Aerodrome Forecast
Issued by NWS

Home | Current Version | Previous Version | Text Only | Print | Product List | Glossary On
Versions: 1 2 3 4 5 6 7 8 9 10 11 12 13 14 15 16 17 18 19 20
000
FTUS43 KDLH 271700
TAFHIB
TAF
KHIB 271720Z 2718/2818 01013G20KT P6SM VCSH SCT018 OVC040
     FM272100 35009G17KT P6SM SCT025 BKN035
     FM280400 34006KT P6SM FEW040
     FM280900 VRB03KT P6SM SKC
     FM281700 35007KT P6SM SCT050=

USA.gov is the U.S. government's official web portal to all federal, state and local government web resources and services.